Live aus Altenrhein
LIVE
LSZR 200120Z AUTO VRB02KT 9999 BKN060 14/12 Q1023

People´s Info Center:

Öffnungszeiten Mo-Fr, 8-18 Uhr

 

info@peoples.ch

 
Aus Österreich:

T: +43 (0)5572 203 610

 

Aus CH / LI / DE:

T: +41 (0)71 858 51 60

 

Ich fliege öfters, was gibt es hier für Angebote?

 

Wenn Sie im Jahr mindestens 20 Einzeltickets nach Wien oder nach Altenrhein benötigen, bietet Ihnen unser Sales Team gerne ein individuelles Angebot.

 

Ein Vielfliegerangebot enthält:

  • Keine Buchungsgebühren
  • Kostenlose Umbuchungen & Stornierungen
  • Kostenlose Sitzplatzreservation
  • Verfügbarkeit wird bis zum allerletzten Sitzplatz garantiert
  • Priorität bei Wartelisten
  • Tarif kann als Onew-Way Flug gebucht werden
  • Tarifgarantie für 1 Jahr
  • Stark ermässigte Parkplatzgebühren in Altenrhein und Friedrichshafen
  • Zutritt Business Lounge
  • 30+8kg Freigepäck
  • Volle Kostenkontrolle durch eigenen Online Account
  • Security Fastlane am Flughafen Wien

 

Kontakt

Jutta Rinderer oder Francesca Trenti, sales@peoples.ch